sensor_id;sensor_type;location;lat;lon;timestamp;pressure;altitude;pressure_sealevel;temperature;humidity
56456;BME280;42354;53.218;6.564;2023-01-31T00:01:17;47011.91;;;-142.92;83.32
56456;BME280;42354;53.218;6.564;2023-01-31T00:03:43;47018.06;;;-142.92;83.10
56456;BME280;42354;53.218;6.564;2023-01-31T00:06:22;47026.28;;;-142.92;83.04
56456;BME280;42354;53.218;6.564;2023-01-31T00:08:49;47011.91;;;-142.92;83.32
56456;BME280;42354;53.218;6.564;2023-01-31T00:11:17;47018.06;;;-142.92;83.64
56456;BME280;42354;53.218;6.564;2023-01-31T00:13:43;47016.00;;;-142.92;83.84
56456;BME280;42354;53.218;6.564;2023-01-31T00:16:10;47011.91;;;-142.92;83.91
56456;BME280;42354;53.218;6.564;2023-01-31T00:18:35;46985.22;;;-142.92;83.91
56456;BME280;42354;53.218;6.564;2023-01-31T00:21:07;46999.59;;;-142.92;83.60
56456;BME280;42354;53.218;6.564;2023-01-31T00:23:33;47016.00;;;-142.92;83.37
56456;BME280;42354;53.218;6.564;2023-01-31T00:26:12;46997.53;;;-142.92;82.70
56456;BME280;42354;53.218;6.564;2023-01-31T00:28:38;47022.16;;;-142.92;83.04
56456;BME280;42354;53.218;6.564;2023-01-31T00:31:05;47007.81;;;-142.92;83.04
56456;BME280;42354;53.218;6.564;2023-01-31T00:33:30;47028.31;;;-142.92;82.91
56456;BME280;42354;53.218;6.564;2023-01-31T00:35:56;46991.38;;;-142.92;82.98
56456;BME280;42354;53.218;6.564;2023-01-31T00:38:22;46979.06;;;-142.92;82.94
56456;BME280;42354;53.218;6.564;2023-01-31T00:40:52;47009.84;;;-142.92;82.88
56456;BME280;42354;53.218;6.564;2023-01-31T00:43:17;46997.53;;;-142.92;82.83
56456;BME280;42354;53.218;6.564;2023-01-31T00:45:42;47016.00;;;-142.92;82.45
56456;BME280;42354;53.218;6.564;2023-01-31T00:48:08;47001.66;;;-142.92;82.73
56456;BME280;42354;53.218;6.564;2023-01-31T00:50:33;47003.69;;;-142.92;82.93
56456;BME280;42354;53.218;6.564;2023-01-31T00:52:58;46993.44;;;-142.92;82.70
56456;BME280;42354;53.218;6.564;2023-01-31T00:55:24;47003.69;;;-142.92;82.57
56456;BME280;42354;53.218;6.564;2023-01-31T00:57:49;47001.66;;;-142.92;82.59
56456;BME280;42354;53.218;6.564;2023-01-31T01:00:15;47011.91;;;-142.92;82.65
56456;BME280;42354;53.218;6.564;2023-01-31T01:02:42;46999.59;;;-142.92;82.28
56456;BME280;42354;53.218;6.564;2023-01-31T01:05:08;47003.69;;;-142.92;82.51
56456;BME280;42354;53.218;6.564;2023-01-31T01:07:33;46997.53;;;-142.92;82.63
56456;BME280;42354;53.218;6.564;2023-01-31T01:09:59;46993.44;;;-142.92;82.35
56456;BME280;42354;53.218;6.564;2023-01-31T01:12:24;46989.34;;;-142.92;82.74
56456;BME280;42354;53.218;6.564;2023-01-31T01:14:49;46991.38;;;-142.92;82.83
56456;BME280;42354;53.218;6.564;2023-01-31T01:17:15;46989.34;;;-142.92;83.15
56456;BME280;42354;53.218;6.564;2023-01-31T01:19:40;47003.69;;;-142.92;83.35
56456;BME280;42354;53.218;6.564;2023-01-31T01:22:06;46993.44;;;-142.92;83.68
56456;BME280;42354;53.218;6.564;2023-01-31T01:24:31;47001.66;;;-142.92;83.77
56456;BME280;42354;53.218;6.564;2023-01-31T01:26:56;47001.66;;;-142.92;84.00
56456;BME280;42354;53.218;6.564;2023-01-31T01:29:22;46966.75;;;-142.92;84.13
56456;BME280;42354;53.218;6.564;2023-01-31T01:31:47;46995.50;;;-142.92;84.03
56456;BME280;42354;53.218;6.564;2023-01-31T01:34:14;46995.50;;;-142.92;84.39
56456;BME280;42354;53.218;6.564;2023-01-31T01:36:40;46987.28;;;-142.92;84.56
56456;BME280;42354;53.218;6.564;2023-01-31T01:39:08;47024.22;;;-142.92;84.73
56456;BME280;42354;53.218;6.564;2023-01-31T01:41:34;46987.28;;;-142.92;84.75
56456;BME280;42354;53.218;6.564;2023-01-31T01:44:03;47007.81;;;-142.92;84.88
56456;BME280;42354;53.218;6.564;2023-01-31T01:46:33;47001.66;;;-142.92;84.85
56456;BME280;42354;53.218;6.564;2023-01-31T01:51:29;47009.84;;;-142.92;85.18
56456;BME280;42354;53.218;6.564;2023-01-31T01:53:59;46997.53;;;-142.92;85.00
56456;BME280;42354;53.218;6.564;2023-01-31T01:56:31;46999.59;;;-142.92;85.15
56456;BME280;42354;53.218;6.564;2023-01-31T02:01:34;47003.69;;;-142.92;85.21
56456;BME280;42354;53.218;6.564;2023-01-31T02:03:59;47003.69;;;-142.92;85.23
56456;BME280;42354;53.218;6.564;2023-01-31T02:06:25;46987.28;;;-142.92;85.53
56456;BME280;42354;53.218;6.564;2023-01-31T02:08:50;46979.06;;;-142.92;85.55
56456;BME280;42354;53.218;6.564;2023-01-31T02:11:29;47030.38;;;-142.92;85.67
56456;BME280;42354;53.218;6.564;2023-01-31T02:14:00;47003.69;;;-142.92;85.71
56456;BME280;42354;53.218;6.564;2023-01-31T02:16:26;46991.38;;;-142.92;85.99
56456;BME280;42354;53.218;6.564;2023-01-31T02:18:52;46999.59;;;-142.92;85.81
56456;BME280;42354;53.218;6.564;2023-01-31T02:32:47;47022.16;;;-142.92;86.67
56456;BME280;42354;53.218;6.564;2023-01-31T02:35:24;46999.59;;;-142.92;86.83
56456;BME280;42354;53.218;6.564;2023-01-31T02:43:17;47024.22;;;-142.92;87.10
56456;BME280;42354;53.218;6.564;2023-01-31T02:46:00;47028.31;;;-142.92;86.98
56456;BME280;42354;53.218;6.564;2023-01-31T02:51:02;47007.81;;;-142.92;86.90
56456;BME280;42354;53.218;6.564;2023-01-31T02:53:30;46999.59;;;-142.92;87.08
56456;BME280;42354;53.218;6.564;2023-01-31T02:56:20;47007.81;;;-142.92;86.95
56456;BME280;42354;53.218;6.564;2023-01-31T02:58:53;46999.59;;;-142.92;86.92
56456;BME280;42354;53.218;6.564;2023-01-31T03:01:24;47003.69;;;-142.92;87.08
56456;BME280;42354;53.218;6.564;2023-01-31T03:03:56;47003.69;;;-142.92;86.84
56456;BME280;42354;53.218;6.564;2023-01-31T03:09:23;46995.50;;;-142.92;86.36
56456;BME280;42354;53.218;6.564;2023-01-31T03:17:56;46991.38;;;-142.92;86.71
56456;BME280;42354;53.218;6.564;2023-01-31T03:23:03;47016.00;;;-142.92;86.81
56456;BME280;42354;53.218;6.564;2023-01-31T03:25:32;47020.13;;;-142.92;86.83
56456;BME280;42354;53.218;6.564;2023-01-31T03:28:03;47020.13;;;-142.92;86.76
56456;BME280;42354;53.218;6.564;2023-01-31T03:30:39;47016.00;;;-142.92;86.64
56456;BME280;42354;53.218;6.564;2023-01-31T03:33:14;46991.38;;;-142.92;86.83
56456;BME280;42354;53.218;6.564;2023-01-31T03:35:41;47016.00;;;-142.92;87.05
56456;BME280;42354;53.218;6.564;2023-01-31T03:38:21;46999.59;;;-142.92;87.03
56456;BME280;42354;53.218;6.564;2023-01-31T03:41:11;47020.13;;;-142.92;87.02
56456;BME280;42354;53.218;6.564;2023-01-31T03:43:57;47016.00;;;-142.92;87.06
56456;BME280;42354;53.218;6.564;2023-01-31T03:46:28;47020.13;;;-142.92;87.01
56456;BME280;42354;53.218;6.564;2023-01-31T03:48:56;47001.66;;;-142.92;87.34
56456;BME280;42354;53.218;6.564;2023-01-31T03:51:27;47024.22;;;-142.92;87.26
56456;BME280;42354;53.218;6.564;2023-01-31T03:53:59;47013.97;;;-142.92;87.21
56456;BME280;42354;53.218;6.564;2023-01-31T03:56:36;47016.00;;;-142.92;87.43
56456;BME280;42354;53.218;6.564;2023-01-31T03:59:08;47011.91;;;-142.92;87.45
56456;BME280;42354;53.218;6.564;2023-01-31T04:01:37;47018.06;;;-142.92;87.50
56456;BME280;42354;53.218;6.564;2023-01-31T04:04:10;47005.75;;;-142.92;87.39
56456;BME280;42354;53.218;6.564;2023-01-31T04:06:36;47013.97;;;-142.92;87.52
56456;BME280;42354;53.218;6.564;2023-01-31T04:09:02;47020.13;;;-142.92;87.46
56456;BME280;42354;53.218;6.564;2023-01-31T04:11:28;47007.81;;;-142.92;87.85
56456;BME280;42354;53.218;6.564;2023-01-31T04:13:53;47005.75;;;-142.92;87.95
56456;BME280;42354;53.218;6.564;2023-01-31T04:16:19;46997.53;;;-142.92;88.01
56456;BME280;42354;53.218;6.564;2023-01-31T04:18:44;47005.75;;;-142.92;88.31
56456;BME280;42354;53.218;6.564;2023-01-31T04:21:09;47013.97;;;-142.92;88.21
56456;BME280;42354;53.218;6.564;2023-01-31T04:23:35;46999.59;;;-142.92;88.21
56456;BME280;42354;53.218;6.564;2023-01-31T04:26:01;47016.00;;;-142.92;88.48
56456;BME280;42354;53.218;6.564;2023-01-31T04:28:26;46983.19;;;-142.92;88.67
56456;BME280;42354;53.218;6.564;2023-01-31T04:30:55;47005.75;;;-142.92;88.57
56456;BME280;42354;53.218;6.564;2023-01-31T04:33:22;47007.81;;;-142.92;88.85
56456;BME280;42354;53.218;6.564;2023-01-31T04:35:49;46999.59;;;-142.92;88.78
56456;BME280;42354;53.218;6.564;2023-01-31T04:38:14;47009.84;;;-142.92;89.34
56456;BME280;42354;53.218;6.564;2023-01-31T04:40:40;47007.81;;;-142.92;89.42
56456;BME280;42354;53.218;6.564;2023-01-31T04:43:05;47020.13;;;-142.92;89.48
56456;BME280;42354;53.218;6.564;2023-01-31T04:45:30;47020.13;;;-142.92;89.87
56456;BME280;42354;53.218;6.564;2023-01-31T04:47:56;47001.66;;;-142.92;89.78
56456;BME280;42354;53.218;6.564;2023-01-31T04:50:21;47011.91;;;-142.92;90.09
56456;BME280;42354;53.218;6.564;2023-01-31T04:52:50;46993.44;;;-142.92;90.42
56456;BME280;42354;53.218;6.564;2023-01-31T04:55:17;47024.22;;;-142.92;90.21
56456;BME280;42354;53.218;6.564;2023-01-31T04:57:42;47018.06;;;-142.92;90.41
56456;BME280;42354;53.218;6.564;2023-01-31T05:00:08;46995.50;;;-142.92;90.46
56456;BME280;42354;53.218;6.564;2023-01-31T05:02:34;46999.59;;;-142.92;90.43
56456;BME280;42354;53.218;6.564;2023-01-31T05:04:59;47011.91;;;-142.92;90.44
56456;BME280;42354;53.218;6.564;2023-01-31T05:07:25;47009.84;;;-142.92;90.41
56456;BME280;42354;53.218;6.564;2023-01-31T05:09:51;46995.50;;;-142.92;90.35
56456;BME280;42354;53.218;6.564;2023-01-31T05:12:16;47028.31;;;-142.92;90.30
56456;BME280;42354;53.218;6.564;2023-01-31T05:14:41;47003.69;;;-142.92;90.09
56456;BME280;42354;53.218;6.564;2023-01-31T05:17:07;46997.53;;;-142.92;90.28
56456;BME280;42354;53.218;6.564;2023-01-31T05:19:32;47009.84;;;-142.92;90.31
56456;BME280;42354;53.218;6.564;2023-01-31T05:21:58;47016.00;;;-142.92;90.37
56456;BME280;42354;53.218;6.564;2023-01-31T05:24:27;47018.06;;;-142.92;90.21
56456;BME280;42354;53.218;6.564;2023-01-31T05:26:53;47022.16;;;-142.92;90.08
56456;BME280;42354;53.218;6.564;2023-01-31T05:29:29;47003.69;;;-142.92;90.18
56456;BME280;42354;53.218;6.564;2023-01-31T05:31:56;47028.31;;;-142.92;90.03
56456;BME280;42354;53.218;6.564;2023-01-31T05:34:23;47020.13;;;-142.92;90.21
56456;BME280;42354;53.218;6.564;2023-01-31T05:36:53;47011.91;;;-142.92;89.94
56456;BME280;42354;53.218;6.564;2023-01-31T05:39:18;47005.75;;;-142.92;90.05
56456;BME280;42354;53.218;6.564;2023-01-31T05:41:44;46999.59;;;-142.92;89.71
56456;BME280;42354;53.218;6.564;2023-01-31T05:44:09;47024.22;;;-142.92;89.72
56456;BME280;42354;53.218;6.564;2023-01-31T05:46:38;47001.66;;;-142.92;89.80
56456;BME280;42354;53.218;6.564;2023-01-31T05:49:04;47011.91;;;-142.92;89.71
56456;BME280;42354;53.218;6.564;2023-01-31T05:51:29;46983.19;;;-142.92;89.81
56456;BME280;42354;53.218;6.564;2023-01-31T05:53:55;47009.84;;;-142.92;89.71
56456;BME280;42354;53.218;6.564;2023-01-31T05:56:21;46999.59;;;-142.92;89.61
56456;BME280;42354;53.218;6.564;2023-01-31T05:58:46;47026.28;;;-142.92;89.27
56456;BME280;42354;53.218;6.564;2023-01-31T06:01:16;46999.59;;;-142.92;89.33
56456;BME280;42354;53.218;6.564;2023-01-31T06:03:42;47028.31;;;-142.92;89.46
56456;BME280;42354;53.218;6.564;2023-01-31T06:06:07;47011.91;;;-142.92;89.13
56456;BME280;42354;53.218;6.564;2023-01-31T06:08:32;47003.69;;;-142.92;89.01
56456;BME280;42354;53.218;6.564;2023-01-31T06:11:00;47007.81;;;-142.92;88.69
56456;BME280;42354;53.218;6.564;2023-01-31T06:13:26;47003.69;;;-142.92;89.00
56456;BME280;42354;53.218;6.564;2023-01-31T06:15:52;47001.66;;;-142.92;89.16
56456;BME280;42354;53.218;6.564;2023-01-31T06:18:17;47011.91;;;-142.92;88.67
56456;BME280;42354;53.218;6.564;2023-01-31T06:20:42;46995.50;;;-142.92;88.89
56456;BME280;42354;53.218;6.564;2023-01-31T06:23:08;47009.84;;;-142.92;89.02
56456;BME280;42354;53.218;6.564;2023-01-31T06:25:33;47018.06;;;-142.92;88.96
56456;BME280;42354;53.218;6.564;2023-01-31T06:27:59;47005.75;;;-142.92;88.97
56456;BME280;42354;53.218;6.564;2023-01-31T06:30:24;47007.81;;;-142.92;88.76
56456;BME280;42354;53.218;6.564;2023-01-31T06:32:49;47001.66;;;-142.92;88.71
56456;BME280;42354;53.218;6.564;2023-01-31T06:35:15;46993.44;;;-142.92;88.82
56456;BME280;42354;53.218;6.564;2023-01-31T06:37:40;47007.81;;;-142.92;88.98
56456;BME280;42354;53.218;6.564;2023-01-31T06:40:06;47032.44;;;-142.92;88.88
56456;BME280;42354;53.218;6.564;2023-01-31T06:42:31;46993.44;;;-142.92;88.84
56456;BME280;42354;53.218;6.564;2023-01-31T06:44:56;47016.00;;;-142.92;88.74
56456;BME280;42354;53.218;6.564;2023-01-31T06:47:22;47003.69;;;-142.92;88.94
56456;BME280;42354;53.218;6.564;2023-01-31T06:49:47;47003.69;;;-142.92;89.18
56456;BME280;42354;53.218;6.564;2023-01-31T06:52:13;46987.28;;;-142.92;89.18
56456;BME280;42354;53.218;6.564;2023-01-31T06:54:38;47013.97;;;-142.92;89.47
56456;BME280;42354;53.218;6.564;2023-01-31T06:57:03;47007.81;;;-142.92;89.29
56456;BME280;42354;53.218;6.564;2023-01-31T06:59:29;47011.91;;;-142.92;89.36
56456;BME280;42354;53.218;6.564;2023-01-31T07:01:54;47003.69;;;-142.92;89.31
56456;BME280;42354;53.218;6.564;2023-01-31T07:04:20;47016.00;;;-142.92;89.25
56456;BME280;42354;53.218;6.564;2023-01-31T07:06:45;47009.84;;;-142.92;89.33
56456;BME280;42354;53.218;6.564;2023-01-31T07:09:10;47007.81;;;-142.92;89.22
56456;BME280;42354;53.218;6.564;2023-01-31T07:11:36;47016.00;;;-142.92;89.14
56456;BME280;42354;53.218;6.564;2023-01-31T07:14:02;47011.91;;;-142.92;89.22
56456;BME280;42354;53.218;6.564;2023-01-31T07:16:27;47003.69;;;-142.92;88.88
56456;BME280;42354;53.218;6.564;2023-01-31T07:18:54;46985.22;;;-142.92;88.58
56456;BME280;42354;53.218;6.564;2023-01-31T07:21:20;47016.00;;;-142.92;88.63
56456;BME280;42354;53.218;6.564;2023-01-31T07:23:46;47003.69;;;-142.92;88.79
56456;BME280;42354;53.218;6.564;2023-01-31T07:26:12;46997.53;;;-142.92;88.78
56456;BME280;42354;53.218;6.564;2023-01-31T07:28:37;47011.91;;;-142.92;88.76
56456;BME280;42354;53.218;6.564;2023-01-31T07:31:07;47005.75;;;-142.92;88.64
56456;BME280;42354;53.218;6.564;2023-01-31T07:33:35;46995.50;;;-142.92;88.62
56456;BME280;42354;53.218;6.564;2023-01-31T07:36:02;47011.91;;;-142.92;88.24
56456;BME280;42354;53.218;6.564;2023-01-31T07:38:29;47018.06;;;-142.92;88.01
56456;BME280;42354;53.218;6.564;2023-01-31T07:41:00;46989.34;;;-142.92;87.90
56456;BME280;42354;53.218;6.564;2023-01-31T07:43:27;47024.22;;;-142.92;88.22
56456;BME280;42354;53.218;6.564;2023-01-31T07:45:53;47024.22;;;-142.92;88.31
56456;BME280;42354;53.218;6.564;2023-01-31T07:48:19;47007.81;;;-142.92;88.39
56456;BME280;42354;53.218;6.564;2023-01-31T07:50:58;47003.69;;;-142.92;88.22
56456;BME280;42354;53.218;6.564;2023-01-31T07:53:27;47005.75;;;-142.92;88.22
56456;BME280;42354;53.218;6.564;2023-01-31T07:55:52;47003.69;;;-142.92;88.43
56456;BME280;42354;53.218;6.564;2023-01-31T07:58:18;47011.91;;;-142.92;88.55
56456;BME280;42354;53.218;6.564;2023-01-31T08:00:43;46997.53;;;-142.92;88.90
56456;BME280;42354;53.218;6.564;2023-01-31T08:03:29;46999.59;;;-142.92;88.88
56456;BME280;42354;53.218;6.564;2023-01-31T08:06:11;46999.59;;;-142.92;88.71
56456;BME280;42354;53.218;6.564;2023-01-31T08:08:38;47028.31;;;-142.92;88.99
56456;BME280;42354;53.218;6.564;2023-01-31T08:11:04;47020.13;;;-142.92;88.88
56456;BME280;42354;53.218;6.564;2023-01-31T08:13:31;47011.91;;;-142.92;88.93
56456;BME280;42354;53.218;6.564;2023-01-31T08:15:57;46995.50;;;-142.92;88.81
56456;BME280;42354;53.218;6.564;2023-01-31T08:18:22;46997.53;;;-142.92;88.60
56456;BME280;42354;53.218;6.564;2023-01-31T08:20:47;47005.75;;;-142.92;88.48
56456;BME280;42354;53.218;6.564;2023-01-31T08:23:13;47005.75;;;-142.92;88.28
56456;BME280;42354;53.218;6.564;2023-01-31T08:25:38;46991.38;;;-142.92;88.38
56456;BME280;42354;53.218;6.564;2023-01-31T08:28:04;47036.53;;;-142.92;88.40
56456;BME280;42354;53.218;6.564;2023-01-31T08:30:29;47026.28;;;-142.92;88.56
56456;BME280;42354;53.218;6.564;2023-01-31T08:32:55;47018.06;;;-142.92;88.39
56456;BME280;42354;53.218;6.564;2023-01-31T08:35:20;47018.06;;;-142.92;88.47
56456;BME280;42354;53.218;6.564;2023-01-31T08:37:46;47026.28;;;-142.92;88.42
56456;BME280;42354;53.218;6.564;2023-01-31T08:40:12;47034.47;;;-142.92;88.71
56456;BME280;42354;53.218;6.564;2023-01-31T08:42:37;47013.97;;;-142.92;88.84
56456;BME280;42354;53.218;6.564;2023-01-31T08:45:03;47003.69;;;-142.92;88.55
56456;BME280;42354;53.218;6.564;2023-01-31T08:47:28;47024.22;;;-142.92;88.78
56456;BME280;42354;53.218;6.564;2023-01-31T08:49:54;47028.31;;;-142.92;88.88
56456;BME280;42354;53.218;6.564;2023-01-31T08:52:20;46993.44;;;-142.92;89.14
56456;BME280;42354;53.218;6.564;2023-01-31T08:54:45;47034.47;;;-142.92;88.64
56456;BME280;42354;53.218;6.564;2023-01-31T08:57:10;47030.38;;;-142.92;88.88
56456;BME280;42354;53.218;6.564;2023-01-31T08:59:36;47016.00;;;-142.92;88.86
56456;BME280;42354;53.218;6.564;2023-01-31T09:02:01;46997.53;;;-142.92;88.83
56456;BME280;42354;53.218;6.564;2023-01-31T09:04:26;47005.75;;;-142.92;89.15
56456;BME280;42354;53.218;6.564;2023-01-31T09:06:52;46987.28;;;-142.92;88.98
56456;BME280;42354;53.218;6.564;2023-01-31T09:09:18;47007.81;;;-142.92;88.80
56456;BME280;42354;53.218;6.564;2023-01-31T09:11:44;47007.81;;;-142.92;89.07
56456;BME280;42354;53.218;6.564;2023-01-31T09:14:09;46995.50;;;-142.92;88.82
56456;BME280;42354;53.218;6.564;2023-01-31T09:16:34;46985.22;;;-142.92;88.91
56456;BME280;42354;53.218;6.564;2023-01-31T09:19:00;47005.75;;;-142.92;89.09
56456;BME280;42354;53.218;6.564;2023-01-31T09:21:25;47007.81;;;-142.92;89.04
56456;BME280;42354;53.218;6.564;2023-01-31T09:23:57;47011.91;;;-142.92;88.95
56456;BME280;42354;53.218;6.564;2023-01-31T09:26:22;46993.44;;;-142.92;89.17
56456;BME280;42354;53.218;6.564;2023-01-31T09:28:48;46987.28;;;-142.92;88.89
56456;BME280;42354;53.218;6.564;2023-01-31T09:31:17;47030.38;;;-142.92;89.00
56456;BME280;42354;53.218;6.564;2023-01-31T09:33:44;47013.97;;;-142.92;88.95
56456;BME280;42354;53.218;6.564;2023-01-31T09:36:14;47011.91;;;-142.92;88.91
56456;BME280;42354;53.218;6.564;2023-01-31T09:38:39;47016.00;;;-142.92;88.90
56456;BME280;42354;53.218;6.564;2023-01-31T09:41:15;47007.81;;;-142.92;89.08
56456;BME280;42354;53.218;6.564;2023-01-31T09:43:48;47001.66;;;-142.92;89.40
56456;BME280;42354;53.218;6.564;2023-01-31T09:46:17;47013.97;;;-142.92;89.51
56456;BME280;42354;53.218;6.564;2023-01-31T09:48:48;47001.66;;;-142.92;89.38
56456;BME280;42354;53.218;6.564;2023-01-31T09:51:15;47018.06;;;-142.92;89.46
56456;BME280;42354;53.218;6.564;2023-01-31T09:53:42;47024.22;;;-142.92;89.63
56456;BME280;42354;53.218;6.564;2023-01-31T10:07:38;46995.50;;;-142.92;89.74
56456;BME280;42354;53.218;6.564;2023-01-31T10:12:48;47007.81;;;-142.92;89.75
56456;BME280;42354;53.218;6.564;2023-01-31T10:15:36;47001.66;;;-142.92;89.90
56456;BME280;42354;53.218;6.564;2023-01-31T10:18:55;46995.50;;;-142.92;90.55
56456;BME280;42354;53.218;6.564;2023-01-31T10:21:08;47028.31;;;-142.92;90.75
56456;BME280;42354;53.218;6.564;2023-01-31T10:23:48;47018.06;;;-142.92;91.28
56456;BME280;42354;53.218;6.564;2023-01-31T10:26:19;46999.59;;;-142.92;91.87
56456;BME280;42354;53.218;6.564;2023-01-31T10:29:44;47013.97;;;-142.92;92.39
56456;BME280;42354;53.218;6.564;2023-01-31T10:31:51;47013.97;;;-142.92;93.21
56456;BME280;42354;53.218;6.564;2023-01-31T10:34:26;47028.31;;;-142.92;93.89
56456;BME280;42354;53.218;6.564;2023-01-31T10:42:05;47001.66;;;-142.92;96.51
56456;BME280;42354;53.218;6.564;2023-01-31T10:44:43;47024.22;;;-142.92;97.29
56456;BME280;42354;53.218;6.564;2023-01-31T10:47:16;47048.84;;;-142.92;98.26
56456;BME280;42354;53.218;6.564;2023-01-31T10:49:49;47057.06;;;-142.92;98.92
56456;BME280;42354;53.218;6.564;2023-01-31T10:57:24;47069.38;;;-142.92;100.00
56456;BME280;42354;53.218;6.564;2023-01-31T10:59:51;47069.38;;;-142.92;100.00
56456;BME280;42354;53.218;6.564;2023-01-31T11:02:27;47067.31;;;-142.92;100.00
56456;BME280;42354;53.218;6.564;2023-01-31T11:04:56;47077.56;;;-142.92;100.00
56456;BME280;42354;53.218;6.564;2023-01-31T11:07:22;47071.41;;;-142.92;100.00
56456;BME280;42354;53.218;6.564;2023-01-31T11:09:52;47075.53;;;-142.92;100.00
56456;BME280;42354;53.218;6.564;2023-01-31T11:12:39;47081.69;;;-142.92;100.00
56456;BME280;42354;53.218;6.564;2023-01-31T11:15:16;47073.47;;;-142.92;100.00
56456;BME280;42354;53.218;6.564;2023-01-31T11:17:43;47079.63;;;-142.92;100.00
56456;BME280;42354;53.218;6.564;2023-01-31T11:20:30;47083.72;;;-142.92;100.00
56456;BME280;42354;53.218;6.564;2023-01-31T11:22:58;47069.38;;;-142.92;100.00
56456;BME280;42354;53.218;6.564;2023-01-31T11:25:25;47094.00;;;-142.92;100.00
56456;BME280;42354;53.218;6.564;2023-01-31T11:27:53;47089.88;;;-142.92;100.00
56456;BME280;42354;53.218;6.564;2023-01-31T11:30:32;47089.88;;;-142.92;100.00
56456;BME280;42354;53.218;6.564;2023-01-31T11:32:59;47069.38;;;-142.92;100.00
56456;BME280;42354;53.218;6.564;2023-01-31T11:35:27;47089.88;;;-142.92;100.00
56456;BME280;42354;53.218;6.564;2023-01-31T11:37:59;47073.47;;;-142.92;100.00
56456;BME280;42354;53.218;6.564;2023-01-31T11:40:28;47081.69;;;-142.92;100.00
56456;BME280;42354;53.218;6.564;2023-01-31T11:45:56;47089.88;;;-142.92;100.00
56456;BME280;42354;53.218;6.564;2023-01-31T11:48:25;47067.31;;;-142.92;100.00
56456;BME280;42354;53.218;6.564;2023-01-31T11:50:54;47077.56;;;-142.92;100.00
56456;BME280;42354;53.218;6.564;2023-01-31T11:56:15;47089.88;;;-142.92;100.00
56456;BME280;42354;53.218;6.564;2023-01-31T11:58:43;47073.47;;;-142.92;100.00
56456;BME280;42354;53.218;6.564;2023-01-31T12:01:18;47081.69;;;-142.92;100.00
56456;BME280;42354;53.218;6.564;2023-01-31T12:03:51;47077.56;;;-142.92;100.00
56456;BME280;42354;53.218;6.564;2023-01-31T12:06:31;47073.47;;;-142.92;100.00
56456;BME280;42354;53.218;6.564;2023-01-31T12:08:58;47085.78;;;-142.92;100.00
56456;BME280;42354;53.218;6.564;2023-01-31T12:11:32;47069.38;;;-142.92;100.00
56456;BME280;42354;53.218;6.564;2023-01-31T12:14:12;47052.94;;;-142.92;100.00
56456;BME280;42354;53.218;6.564;2023-01-31T12:16:38;47048.84;;;-142.92;99.73
56456;BME280;42354;53.218;6.564;2023-01-31T12:21:52;47009.84;;;-142.92;98.32
56456;BME280;42354;53.218;6.564;2023-01-31T12:30:13;46899.06;;;-142.92;96.21
56456;BME280;42354;53.218;6.564;2023-01-31T12:32:56;46816.97;;;-142.92;95.30
56456;BME280;42354;53.218;6.564;2023-01-31T12:42:59;46708.22;;;-142.92;93.06
56456;BME280;42354;53.218;6.564;2023-01-31T12:53:49;47007.81;;;-142.92;92.02
56456;BME280;42354;53.218;6.564;2023-01-31T13:07:35;47011.91;;;-142.92;90.24
56456;BME280;42354;53.218;6.564;2023-01-31T13:10:06;47016.00;;;-142.92;90.05
56456;BME280;42354;53.218;6.564;2023-01-31T13:12:40;47011.91;;;-142.92;89.46
56456;BME280;42354;53.218;6.564;2023-01-31T13:15:14;47020.13;;;-142.92;88.68
56456;BME280;42354;53.218;6.564;2023-01-31T13:17:42;47016.00;;;-142.92;88.74
56456;BME280;42354;53.218;6.564;2023-01-31T13:22:54;47020.13;;;-142.92;86.21
56456;BME280;42354;53.218;6.564;2023-01-31T13:28:08;47007.81;;;-142.92;85.73
56456;BME280;42354;53.218;6.564;2023-01-31T13:30:40;47024.22;;;-142.92;85.55
56456;BME280;42354;53.218;6.564;2023-01-31T13:33:50;47001.66;;;-142.92;85.18
56456;BME280;42354;53.218;6.564;2023-01-31T13:36:24;47024.22;;;-142.92;85.08
56456;BME280;42354;53.218;6.564;2023-01-31T13:38:51;47022.16;;;-142.92;84.04
56456;BME280;42354;53.218;6.564;2023-01-31T13:43:47;47011.91;;;-142.92;83.14
56456;BME280;42354;53.218;6.564;2023-01-31T13:46:13;46999.59;;;-142.92;83.18
56456;BME280;42354;53.218;6.564;2023-01-31T13:48:52;47022.16;;;-142.92;83.48
56456;BME280;42354;53.218;6.564;2023-01-31T13:56:21;47011.91;;;-142.92;81.98
56456;BME280;42354;53.218;6.564;2023-01-31T13:58:49;47007.81;;;-142.92;81.27
56456;BME280;42354;53.218;6.564;2023-01-31T14:01:24;47018.06;;;-142.92;81.45
56456;BME280;42354;53.218;6.564;2023-01-31T14:11:54;47011.91;;;-142.92;80.73
56456;BME280;42354;53.218;6.564;2023-01-31T14:14:38;47007.81;;;-142.92;80.44
56456;BME280;42354;53.218;6.564;2023-01-31T14:22:19;47007.81;;;-142.92;80.23
56456;BME280;42354;53.218;6.564;2023-01-31T14:30:14;47001.66;;;-142.92;79.72
56456;BME280;42354;53.218;6.564;2023-01-31T14:33:07;47011.91;;;-142.92;80.34
56456;BME280;42354;53.218;6.564;2023-01-31T14:41:54;47020.13;;;-142.92;82.70
56456;BME280;42354;53.218;6.564;2023-01-31T14:44:39;47020.13;;;-142.92;82.74
56456;BME280;42354;53.218;6.564;2023-01-31T14:50:06;47016.00;;;-142.92;82.17
56456;BME280;42354;53.218;6.564;2023-01-31T14:58:25;46995.50;;;-142.92;79.79
56456;BME280;42354;53.218;6.564;2023-01-31T15:00:55;47011.91;;;-142.92;79.70
56456;BME280;42354;53.218;6.564;2023-01-31T15:03:28;47007.81;;;-142.92;78.89
56456;BME280;42354;53.218;6.564;2023-01-31T15:06:06;47013.97;;;-142.92;78.84
56456;BME280;42354;53.218;6.564;2023-01-31T15:08:41;46999.59;;;-142.92;78.17
56456;BME280;42354;53.218;6.564;2023-01-31T15:16:27;47013.97;;;-142.92;78.08
56456;BME280;42354;53.218;6.564;2023-01-31T15:21:23;47011.91;;;-142.92;77.77
56456;BME280;42354;53.218;6.564;2023-01-31T15:23:51;47024.22;;;-142.92;77.91